sensor_id;sensor_type;location;lat;lon;timestamp;temperature;humidity
71096;DHT22;58753;49.440;11.126;2023-08-17T00:01:49;20.23;83.97
71096;DHT22;58753;49.440;11.126;2023-08-17T00:04:14;20.21;84.11
71096;DHT22;58753;49.440;11.126;2023-08-17T00:06:40;20.21;84.20
71096;DHT22;58753;49.440;11.126;2023-08-17T00:09:05;20.18;84.06
71096;DHT22;58753;49.440;11.126;2023-08-17T00:11:33;20.14;84.26
71096;DHT22;58753;49.440;11.126;2023-08-17T00:13:59;20.12;84.14
71096;DHT22;58753;49.440;11.126;2023-08-17T00:16:25;20.13;84.61
71096;DHT22;58753;49.440;11.126;2023-08-17T00:18:51;20.13;84.46
71096;DHT22;58753;49.440;11.126;2023-08-17T00:21:16;20.13;84.40
71096;DHT22;58753;49.440;11.126;2023-08-17T00:23:42;20.10;84.57
71096;DHT22;58753;49.440;11.126;2023-08-17T00:26:08;20.14;84.79
71096;DHT22;58753;49.440;11.126;2023-08-17T00:28:33;20.17;84.75
71096;DHT22;58753;49.440;11.126;2023-08-17T00:31:02;20.20;84.78
71096;DHT22;58753;49.440;11.126;2023-08-17T00:33:28;20.21;84.63
71096;DHT22;58753;49.440;11.126;2023-08-17T00:35:53;20.23;84.73
71096;DHT22;58753;49.440;11.126;2023-08-17T00:38:18;20.24;84.72
71096;DHT22;58753;49.440;11.126;2023-08-17T00:40:44;20.27;84.78
71096;DHT22;58753;49.440;11.126;2023-08-17T00:43:09;20.27;84.77
71096;DHT22;58753;49.440;11.126;2023-08-17T00:45:35;20.30;84.81
71096;DHT22;58753;49.440;11.126;2023-08-17T00:48:01;20.31;84.78
71096;DHT22;58753;49.440;11.126;2023-08-17T00:50:28;20.33;84.71
71096;DHT22;58753;49.440;11.126;2023-08-17T00:52:55;20.28;84.54
71096;DHT22;58753;49.440;11.126;2023-08-17T00:55:21;20.27;84.61
71096;DHT22;58753;49.440;11.126;2023-08-17T00:57:46;20.28;84.76
71096;DHT22;58753;49.440;11.126;2023-08-17T01:00:13;20.34;84.67
71096;DHT22;58753;49.440;11.126;2023-08-17T01:02:42;20.34;84.59
71096;DHT22;58753;49.440;11.126;2023-08-17T01:05:07;20.34;84.47
71096;DHT22;58753;49.440;11.126;2023-08-17T01:07:33;20.36;84.42
71096;DHT22;58753;49.440;11.126;2023-08-17T01:09:59;20.33;84.38
71096;DHT22;58753;49.440;11.126;2023-08-17T01:15:14;20.37;84.41
71096;DHT22;58753;49.440;11.126;2023-08-17T01:17:52;20.37;84.37
71096;DHT22;58753;49.440;11.126;2023-08-17T01:20:19;20.37;84.39
71096;DHT22;58753;49.440;11.126;2023-08-17T01:22:49;20.37;84.39
71096;DHT22;58753;49.440;11.126;2023-08-17T01:25:15;20.33;84.21
71096;DHT22;58753;49.440;11.126;2023-08-17T01:27:43;20.27;84.15
71096;DHT22;58753;49.440;11.126;2023-08-17T01:30:11;20.26;84.27
71096;DHT22;58753;49.440;11.126;2023-08-17T01:37:50;20.28;84.41
71096;DHT22;58753;49.440;11.126;2023-08-17T01:40:18;20.27;84.44
71096;DHT22;58753;49.440;11.126;2023-08-17T01:42:44;20.26;84.53
71096;DHT22;58753;49.440;11.126;2023-08-17T01:45:10;20.23;84.54
71096;DHT22;58753;49.440;11.126;2023-08-17T01:47:36;20.18;84.61
71096;DHT22;58753;49.440;11.126;2023-08-17T01:50:01;20.14;84.72
71096;DHT22;58753;49.440;11.126;2023-08-17T01:52:27;20.12;84.76
71096;DHT22;58753;49.440;11.126;2023-08-17T01:54:53;20.09;84.80
71096;DHT22;58753;49.440;11.126;2023-08-17T01:57:19;20.07;84.91
71096;DHT22;58753;49.440;11.126;2023-08-17T01:59:45;20.06;84.86
71096;DHT22;58753;49.440;11.126;2023-08-17T02:02:13;20.04;84.97
71096;DHT22;58753;49.440;11.126;2023-08-17T02:04:40;20.07;85.16
71096;DHT22;58753;49.440;11.126;2023-08-17T02:07:05;20.10;85.27
71096;DHT22;58753;49.440;11.126;2023-08-17T02:09:31;20.12;85.19
71096;DHT22;58753;49.440;11.126;2023-08-17T02:11:56;20.09;85.31
71096;DHT22;58753;49.440;11.126;2023-08-17T02:14:21;20.09;85.37
71096;DHT22;58753;49.440;11.126;2023-08-17T02:16:52;20.10;85.43
71096;DHT22;58753;49.440;11.126;2023-08-17T02:19:17;20.10;85.47
71096;DHT22;58753;49.440;11.126;2023-08-17T02:21:43;20.09;85.58
71096;DHT22;58753;49.440;11.126;2023-08-17T02:24:09;20.09;85.58
71096;DHT22;58753;49.440;11.126;2023-08-17T02:26:35;20.06;85.73
71096;DHT22;58753;49.440;11.126;2023-08-17T02:29:00;20.07;85.74
71096;DHT22;58753;49.440;11.126;2023-08-17T02:31:26;20.01;85.77
71096;DHT22;58753;49.440;11.126;2023-08-17T02:33:51;20.04;85.87
71096;DHT22;58753;49.440;11.126;2023-08-17T02:36:16;20.04;85.87
71096;DHT22;58753;49.440;11.126;2023-08-17T02:38:42;20.04;85.89
71096;DHT22;58753;49.440;11.126;2023-08-17T02:41:07;20.03;85.96
71096;DHT22;58753;49.440;11.126;2023-08-17T02:43:33;20.03;85.88
71096;DHT22;58753;49.440;11.126;2023-08-17T02:45:58;20.04;85.99
71096;DHT22;58753;49.440;11.126;2023-08-17T02:48:24;20.06;85.98
71096;DHT22;58753;49.440;11.126;2023-08-17T02:50:50;20.04;85.95
71096;DHT22;58753;49.440;11.126;2023-08-17T02:53:15;20.03;85.99
71096;DHT22;58753;49.440;11.126;2023-08-17T02:55:41;20.06;86.09
71096;DHT22;58753;49.440;11.126;2023-08-17T02:58:06;20.06;86.19
71096;DHT22;58753;49.440;11.126;2023-08-17T03:00:32;20.10;86.09
71096;DHT22;58753;49.440;11.126;2023-08-17T03:02:57;20.12;86.11
71096;DHT22;58753;49.440;11.126;2023-08-17T03:05:23;20.16;86.11
71096;DHT22;58753;49.440;11.126;2023-08-17T03:07:48;20.17;86.07
71096;DHT22;58753;49.440;11.126;2023-08-17T03:10:13;20.16;85.94
71096;DHT22;58753;49.440;11.126;2023-08-17T03:12:39;20.20;85.92
71096;DHT22;58753;49.440;11.126;2023-08-17T03:15:06;20.21;85.84
71096;DHT22;58753;49.440;11.126;2023-08-17T03:17:31;20.21;85.81
71096;DHT22;58753;49.440;11.126;2023-08-17T03:19:56;20.24;85.76
71096;DHT22;58753;49.440;11.126;2023-08-17T03:22:24;20.27;85.81
71096;DHT22;58753;49.440;11.126;2023-08-17T03:24:50;20.24;85.69
71096;DHT22;58753;49.440;11.126;2023-08-17T03:27:15;20.23;85.63
71096;DHT22;58753;49.440;11.126;2023-08-17T03:29:41;20.18;85.49
71096;DHT22;58753;49.440;11.126;2023-08-17T03:32:06;20.20;85.44
71096;DHT22;58753;49.440;11.126;2023-08-17T03:34:31;20.18;85.44
71096;DHT22;58753;49.440;11.126;2023-08-17T03:36:57;20.17;85.51
71096;DHT22;58753;49.440;11.126;2023-08-17T03:39:22;20.20;85.53
71096;DHT22;58753;49.440;11.126;2023-08-17T03:41:48;20.18;85.59
71096;DHT22;58753;49.440;11.126;2023-08-17T03:44:13;20.21;85.58
71096;DHT22;58753;49.440;11.126;2023-08-17T03:46:40;20.18;85.61
71096;DHT22;58753;49.440;11.126;2023-08-17T03:49:06;20.17;85.65
71096;DHT22;58753;49.440;11.126;2023-08-17T03:51:31;20.16;85.60
71096;DHT22;58753;49.440;11.126;2023-08-17T03:53:57;20.16;85.73
71096;DHT22;58753;49.440;11.126;2023-08-17T03:56:22;20.16;85.70
71096;DHT22;58753;49.440;11.126;2023-08-17T03:58:47;20.14;85.77
71096;DHT22;58753;49.440;11.126;2023-08-17T04:01:13;20.13;85.82
71096;DHT22;58753;49.440;11.126;2023-08-17T04:03:39;20.13;85.79
71096;DHT22;58753;49.440;11.126;2023-08-17T04:06:07;20.09;85.89
71096;DHT22;58753;49.440;11.126;2023-08-17T04:08:38;20.07;85.87
71096;DHT22;58753;49.440;11.126;2023-08-17T04:11:04;20.06;85.94
71096;DHT22;58753;49.440;11.126;2023-08-17T04:13:30;20.00;85.90
71096;DHT22;58753;49.440;11.126;2023-08-17T04:15:56;20.01;86.13
71096;DHT22;58753;49.440;11.126;2023-08-17T04:18:21;19.98;86.27
71096;DHT22;58753;49.440;11.126;2023-08-17T04:20:46;19.97;86.41
71096;DHT22;58753;49.440;11.126;2023-08-17T04:23:12;19.94;86.34
71096;DHT22;58753;49.440;11.126;2023-08-17T04:25:37;19.92;86.47
71096;DHT22;58753;49.440;11.126;2023-08-17T04:28:03;19.92;86.49
71096;DHT22;58753;49.440;11.126;2023-08-17T04:30:29;19.87;86.48
71096;DHT22;58753;49.440;11.126;2023-08-17T04:32:54;19.86;86.36
71096;DHT22;58753;49.440;11.126;2023-08-17T04:35:20;19.80;86.41
71096;DHT22;58753;49.440;11.126;2023-08-17T04:37:45;19.80;86.44
71096;DHT22;58753;49.440;11.126;2023-08-17T04:40:12;19.77;86.33
71096;DHT22;58753;49.440;11.126;2023-08-17T04:42:38;19.73;86.54
71096;DHT22;58753;49.440;11.126;2023-08-17T04:45:03;19.70;86.44
71096;DHT22;58753;49.440;11.126;2023-08-17T04:47:29;19.69;86.59
71096;DHT22;58753;49.440;11.126;2023-08-17T04:49:54;19.69;86.70
71096;DHT22;58753;49.440;11.126;2023-08-17T04:52:20;19.67;86.77
71096;DHT22;58753;49.440;11.126;2023-08-17T04:54:45;19.65;86.70
71096;DHT22;58753;49.440;11.126;2023-08-17T04:57:10;19.58;86.77
71096;DHT22;58753;49.440;11.126;2023-08-17T04:59:36;19.58;86.82
71096;DHT22;58753;49.440;11.126;2023-08-17T05:02:02;19.55;86.92
71096;DHT22;58753;49.440;11.126;2023-08-17T05:04:29;19.56;87.15
71096;DHT22;58753;49.440;11.126;2023-08-17T05:06:55;19.62;87.15
71096;DHT22;58753;49.440;11.126;2023-08-17T05:09:20;19.62;87.19
71096;DHT22;58753;49.440;11.126;2023-08-17T05:11:46;19.58;87.24
71096;DHT22;58753;49.440;11.126;2023-08-17T05:14:12;19.59;87.41
71096;DHT22;58753;49.440;11.126;2023-08-17T05:16:37;19.65;87.54
71096;DHT22;58753;49.440;11.126;2023-08-17T05:19:03;19.67;87.39
71096;DHT22;58753;49.440;11.126;2023-08-17T05:21:29;19.63;87.37
71096;DHT22;58753;49.440;11.126;2023-08-17T05:23:55;19.67;87.60
71096;DHT22;58753;49.440;11.126;2023-08-17T05:26:21;19.70;87.56
71096;DHT22;58753;49.440;11.126;2023-08-17T05:28:46;19.70;87.51
71096;DHT22;58753;49.440;11.126;2023-08-17T05:31:12;19.69;87.43
71096;DHT22;58753;49.440;11.126;2023-08-17T05:33:37;19.74;87.54
71096;DHT22;58753;49.440;11.126;2023-08-17T05:36:06;19.82;87.62
71096;DHT22;58753;49.440;11.126;2023-08-17T05:38:31;19.86;87.50
71096;DHT22;58753;49.440;11.126;2023-08-17T05:40:58;19.90;87.49
71096;DHT22;58753;49.440;11.126;2023-08-17T05:43:24;19.94;87.35
71096;DHT22;58753;49.440;11.126;2023-08-17T05:45:49;19.98;87.33
71096;DHT22;58753;49.440;11.126;2023-08-17T05:48:15;20.09;87.13
71096;DHT22;58753;49.440;11.126;2023-08-17T05:50:43;20.13;87.03
71096;DHT22;58753;49.440;11.126;2023-08-17T05:53:09;20.14;86.85
71096;DHT22;58753;49.440;11.126;2023-08-17T05:55:34;20.18;86.62
71096;DHT22;58753;49.440;11.126;2023-08-17T05:58:00;20.26;86.65
71096;DHT22;58753;49.440;11.126;2023-08-17T06:00:26;20.28;86.45
71096;DHT22;58753;49.440;11.126;2023-08-17T06:02:51;20.31;86.43
71096;DHT22;58753;49.440;11.126;2023-08-17T06:05:17;20.37;86.40
71096;DHT22;58753;49.440;11.126;2023-08-17T06:07:43;20.48;86.39
71096;DHT22;58753;49.440;11.126;2023-08-17T06:10:09;20.51;86.16
71096;DHT22;58753;49.440;11.126;2023-08-17T06:12:35;20.55;86.04
71096;DHT22;58753;49.440;11.126;2023-08-17T06:15:01;20.58;85.79
71096;DHT22;58753;49.440;11.126;2023-08-17T06:17:28;20.61;85.73
71096;DHT22;58753;49.440;11.126;2023-08-17T06:19:53;20.65;85.65
71096;DHT22;58753;49.440;11.126;2023-08-17T06:22:18;20.67;85.57
71096;DHT22;58753;49.440;11.126;2023-08-17T06:24:44;20.71;85.40
71096;DHT22;58753;49.440;11.126;2023-08-17T06:27:13;20.77;85.30
71096;DHT22;58753;49.440;11.126;2023-08-17T06:29:39;20.78;85.22
71096;DHT22;58753;49.440;11.126;2023-08-17T06:32:05;20.84;85.24
71096;DHT22;58753;49.440;11.126;2023-08-17T06:34:30;20.87;85.11
71096;DHT22;58753;49.440;11.126;2023-08-17T06:36:58;20.91;85.15
71096;DHT22;58753;49.440;11.126;2023-08-17T06:39:24;20.95;85.06
71096;DHT22;58753;49.440;11.126;2023-08-17T06:41:49;20.98;85.14
71096;DHT22;58753;49.440;11.126;2023-08-17T06:44:16;21.06;85.04
71096;DHT22;58753;49.440;11.126;2023-08-17T06:46:42;21.09;85.04
71096;DHT22;58753;49.440;11.126;2023-08-17T06:49:07;21.18;84.99
71096;DHT22;58753;49.440;11.126;2023-08-17T06:51:33;21.29;84.78
71096;DHT22;58753;49.440;11.126;2023-08-17T06:53:59;21.35;84.62
71096;DHT22;58753;49.440;11.126;2023-08-17T06:56:25;21.40;84.31
71096;DHT22;58753;49.440;11.126;2023-08-17T06:58:50;21.45;84.12
71096;DHT22;58753;49.440;11.126;2023-08-17T07:01:16;21.56;84.01
71096;DHT22;58753;49.440;11.126;2023-08-17T07:03:41;21.63;83.87
71096;DHT22;58753;49.440;11.126;2023-08-17T07:06:08;21.71;83.67
71096;DHT22;58753;49.440;11.126;2023-08-17T07:08:33;21.79;83.56
71096;DHT22;58753;49.440;11.126;2023-08-17T07:10:59;21.87;83.28
71096;DHT22;58753;49.440;11.126;2023-08-17T07:13:25;21.94;83.14
71096;DHT22;58753;49.440;11.126;2023-08-17T07:15:50;22.04;82.89
71096;DHT22;58753;49.440;11.126;2023-08-17T07:18:15;22.15;82.51
71096;DHT22;58753;49.440;11.126;2023-08-17T07:20:41;22.25;82.12
71096;DHT22;58753;49.440;11.126;2023-08-17T07:23:06;22.35;81.79
71096;DHT22;58753;49.440;11.126;2023-08-17T07:25:32;22.41;81.17
71096;DHT22;58753;49.440;11.126;2023-08-17T07:27:58;22.52;80.81
71096;DHT22;58753;49.440;11.126;2023-08-17T07:30:24;22.68;80.31
71096;DHT22;58753;49.440;11.126;2023-08-17T07:32:49;22.76;79.79
71096;DHT22;58753;49.440;11.126;2023-08-17T07:35:15;22.85;79.31
71096;DHT22;58753;49.440;11.126;2023-08-17T07:37:40;22.91;78.83
71096;DHT22;58753;49.440;11.126;2023-08-17T07:40:06;22.98;78.74
71096;DHT22;58753;49.440;11.126;2023-08-17T07:42:33;23.06;78.21
71096;DHT22;58753;49.440;11.126;2023-08-17T07:44:59;23.13;77.70
71096;DHT22;58753;49.440;11.126;2023-08-17T07:47:26;23.20;77.31
71096;DHT22;58753;49.440;11.126;2023-08-17T07:49:51;23.26;76.81
71096;DHT22;58753;49.440;11.126;2023-08-17T07:52:16;23.33;76.60
71096;DHT22;58753;49.440;11.126;2023-08-17T07:54:42;23.42;76.38
71096;DHT22;58753;49.440;11.126;2023-08-17T07:57:08;23.53;75.97
71096;DHT22;58753;49.440;11.126;2023-08-17T07:59:33;23.60;75.43
71096;DHT22;58753;49.440;11.126;2023-08-17T08:01:59;23.67;75.21
71096;DHT22;58753;49.440;11.126;2023-08-17T08:04:24;23.73;74.97
71096;DHT22;58753;49.440;11.126;2023-08-17T08:06:50;23.75;74.69
71096;DHT22;58753;49.440;11.126;2023-08-17T08:09:15;23.87;74.33
71096;DHT22;58753;49.440;11.126;2023-08-17T08:11:41;23.97;73.47
71096;DHT22;58753;49.440;11.126;2023-08-17T08:14:06;24.00;73.24
71096;DHT22;58753;49.440;11.126;2023-08-17T08:16:31;24.01;73.17
71096;DHT22;58753;49.440;11.126;2023-08-17T08:18:57;23.98;73.15
71096;DHT22;58753;49.440;11.126;2023-08-17T08:36:57;24.42;71.58
71096;DHT22;58753;49.440;11.126;2023-08-17T08:39:25;24.53;71.01
71096;DHT22;58753;49.440;11.126;2023-08-17T08:41:51;24.65;70.58
71096;DHT22;58753;49.440;11.126;2023-08-17T08:44:16;24.73;69.72
71096;DHT22;58753;49.440;11.126;2023-08-17T08:50:01;25.00;69.21
71096;DHT22;58753;49.440;11.126;2023-08-17T08:52:42;25.10;68.80
71096;DHT22;58753;49.440;11.126;2023-08-17T08:55:18;25.13;68.11
71096;DHT22;58753;49.440;11.126;2023-08-17T08:57:47;25.24;68.01
71096;DHT22;58753;49.440;11.126;2023-08-17T09:00:14;25.27;67.49
71096;DHT22;58753;49.440;11.126;2023-08-17T09:02:42;25.37;67.43
71096;DHT22;58753;49.440;11.126;2023-08-17T09:05:10;25.43;67.53
71096;DHT22;58753;49.440;11.126;2023-08-17T09:07:37;25.48;67.56
71096;DHT22;58753;49.440;11.126;2023-08-17T09:10:03;25.53;67.48
71096;DHT22;58753;49.440;11.126;2023-08-17T09:12:29;25.50;67.29
71096;DHT22;58753;49.440;11.126;2023-08-17T09:14:55;25.51;67.59
71096;DHT22;58753;49.440;11.126;2023-08-17T09:17:32;25.58;67.43
71096;DHT22;58753;49.440;11.126;2023-08-17T09:20:01;25.67;67.44
71096;DHT22;58753;49.440;11.126;2023-08-17T09:22:40;25.78;67.31
71096;DHT22;58753;49.440;11.126;2023-08-17T09:25:10;25.75;67.03
71096;DHT22;58753;49.440;11.126;2023-08-17T09:27:39;25.88;66.79
71096;DHT22;58753;49.440;11.126;2023-08-17T09:30:09;25.91;66.73
71096;DHT22;58753;49.440;11.126;2023-08-17T09:32:35;25.88;66.88
71096;DHT22;58753;49.440;11.126;2023-08-17T09:35:02;25.89;67.05
71096;DHT22;58753;49.440;11.126;2023-08-17T09:37:28;25.89;66.80
71096;DHT22;58753;49.440;11.126;2023-08-17T09:39:57;25.94;66.85
71096;DHT22;58753;49.440;11.126;2023-08-17T09:42:24;25.88;66.75
71096;DHT22;58753;49.440;11.126;2023-08-17T09:44:52;25.98;67.15
71096;DHT22;58753;49.440;11.126;2023-08-17T09:47:18;26.11;66.87
71096;DHT22;58753;49.440;11.126;2023-08-17T09:49:51;26.15;65.85
71096;DHT22;58753;49.440;11.126;2023-08-17T09:52:18;26.25;65.25
71096;DHT22;58753;49.440;11.126;2023-08-17T09:54:45;26.38;65.13
71096;DHT22;58753;49.440;11.126;2023-08-17T09:57:14;26.45;64.86
71096;DHT22;58753;49.440;11.126;2023-08-17T09:59:40;26.50;64.74
71096;DHT22;58753;49.440;11.126;2023-08-17T10:02:17;26.45;64.81
71096;DHT22;58753;49.440;11.126;2023-08-17T10:04:51;26.39;64.97
71096;DHT22;58753;49.440;11.126;2023-08-17T10:07:21;26.46;65.41
71096;DHT22;58753;49.440;11.126;2023-08-17T10:10:07;26.55;64.84
71096;DHT22;58753;49.440;11.126;2023-08-17T10:12:39;26.60;64.70
71096;DHT22;58753;49.440;11.126;2023-08-17T10:15:08;26.70;64.04
71096;DHT22;58753;49.440;11.126;2023-08-17T10:17:42;26.72;63.88
71096;DHT22;58753;49.440;11.126;2023-08-17T10:20:09;26.79;63.79
71096;DHT22;58753;49.440;11.126;2023-08-17T10:25:16;27.08;62.75
71096;DHT22;58753;49.440;11.126;2023-08-17T10:27:42;27.18;61.68
71096;DHT22;58753;49.440;11.126;2023-08-17T10:30:10;27.29;59.69
71096;DHT22;58753;49.440;11.126;2023-08-17T10:32:36;27.45;58.98
71096;DHT22;58753;49.440;11.126;2023-08-17T10:35:02;27.61;58.45
71096;DHT22;58753;49.440;11.126;2023-08-17T10:37:29;27.78;58.42
71096;DHT22;58753;49.440;11.126;2023-08-17T10:39:54;27.88;57.90
71096;DHT22;58753;49.440;11.126;2023-08-17T10:42:30;27.92;56.97
71096;DHT22;58753;49.440;11.126;2023-08-17T10:45:25;28.10;56.75
71096;DHT22;58753;49.440;11.126;2023-08-17T10:47:49;28.23;56.69
71096;DHT22;58753;49.440;11.126;2023-08-17T10:50:24;28.27;57.01
71096;DHT22;58753;49.440;11.126;2023-08-17T10:52:51;28.43;56.99
71096;DHT22;58753;49.440;11.126;2023-08-17T10:55:35;28.56;55.96
71096;DHT22;58753;49.440;11.126;2023-08-17T10:58:01;28.64;55.08
71096;DHT22;58753;49.440;11.126;2023-08-17T11:00:35;28.61;54.36
71096;DHT22;58753;49.440;11.126;2023-08-17T11:05:42;28.60;55.05
71096;DHT22;58753;49.440;11.126;2023-08-17T11:08:28;28.63;55.44
71096;DHT22;58753;49.440;11.126;2023-08-17T11:13:37;29.04;53.79
71096;DHT22;58753;49.440;11.126;2023-08-17T11:16:03;29.14;53.07
71096;DHT22;58753;49.440;11.126;2023-08-17T11:18:30;29.31;53.03
71096;DHT22;58753;49.440;11.126;2023-08-17T11:20:56;29.50;52.37
71096;DHT22;58753;49.440;11.126;2023-08-17T11:23:23;29.68;52.59
71096;DHT22;58753;49.440;11.126;2023-08-17T11:25:49;29.62;51.31
71096;DHT22;58753;49.440;11.126;2023-08-17T11:28:16;29.55;51.36
71096;DHT22;58753;49.440;11.126;2023-08-17T11:30:42;29.59;51.55
71096;DHT22;58753;49.440;11.126;2023-08-17T11:33:08;29.71;51.94
71096;DHT22;58753;49.440;11.126;2023-08-17T11:35:35;29.89;51.91
71096;DHT22;58753;49.440;11.126;2023-08-17T11:38:00;29.90;50.72
71096;DHT22;58753;49.440;11.126;2023-08-17T11:40:26;30.03;51.02
71096;DHT22;58753;49.440;11.126;2023-08-17T11:42:52;30.17;50.27
71096;DHT22;58753;49.440;11.126;2023-08-17T11:45:18;30.34;50.42
71096;DHT22;58753;49.440;11.126;2023-08-17T11:47:44;30.43;50.51
71096;DHT22;58753;49.440;11.126;2023-08-17T11:50:11;30.36;50.27
71096;DHT22;58753;49.440;11.126;2023-08-17T11:52:37;30.50;50.19
71096;DHT22;58753;49.440;11.126;2023-08-17T11:55:03;30.66;50.53
71096;DHT22;58753;49.440;11.126;2023-08-17T11:57:31;30.78;50.20
71096;DHT22;58753;49.440;11.126;2023-08-17T11:59:58;30.77;49.20
71096;DHT22;58753;49.440;11.126;2023-08-17T12:02:23;30.71;49.37
71096;DHT22;58753;49.440;11.126;2023-08-17T12:04:50;30.73;49.84
71096;DHT22;58753;49.440;11.126;2023-08-17T12:07:16;30.80;50.26
71096;DHT22;58753;49.440;11.126;2023-08-17T12:09:43;30.86;49.32
71096;DHT22;58753;49.440;11.126;2023-08-17T12:12:10;30.91;49.41
71096;DHT22;58753;49.440;11.126;2023-08-17T12:14:36;31.04;48.96
71096;DHT22;58753;49.440;11.126;2023-08-17T12:17:01;31.02;47.72
71096;DHT22;58753;49.440;11.126;2023-08-17T12:19:29;31.12;47.75
71096;DHT22;58753;49.440;11.126;2023-08-17T12:21:54;31.01;46.78
71096;DHT22;58753;49.440;11.126;2023-08-17T12:24:24;30.99;47.86
71096;DHT22;58753;49.440;11.126;2023-08-17T12:26:49;31.21;47.43
71096;DHT22;58753;49.440;11.126;2023-08-17T12:29:15;31.39;47.27
71096;DHT22;58753;49.440;11.126;2023-08-17T12:31:40;31.49;47.02
71096;DHT22;58753;49.440;11.126;2023-08-17T12:34:06;31.49;46.86
71096;DHT22;58753;49.440;11.126;2023-08-17T12:36:32;31.32;45.69
71096;DHT22;58753;49.440;11.126;2023-08-17T12:38:57;31.52;46.31
71096;DHT22;58753;49.440;11.126;2023-08-17T12:41:23;31.72;45.41
71096;DHT22;58753;49.440;11.126;2023-08-17T12:43:49;31.86;44.88
71096;DHT22;58753;49.440;11.126;2023-08-17T12:46:14;31.85;43.53
71096;DHT22;58753;49.440;11.126;2023-08-17T12:48:40;31.82;43.86
71096;DHT22;58753;49.440;11.126;2023-08-17T12:51:05;31.89;44.06
71096;DHT22;58753;49.440;11.126;2023-08-17T12:53:31;32.00;42.86
71096;DHT22;58753;49.440;11.126;2023-08-17T12:55:56;32.13;43.66
71096;DHT22;58753;49.440;11.126;2023-08-17T12:58:22;32.19;43.96
71096;DHT22;58753;49.440;11.126;2023-08-17T13:00:47;32.20;44.42
71096;DHT22;58753;49.440;11.126;2023-08-17T13:03:16;32.33;44.88
71096;DHT22;58753;49.440;11.126;2023-08-17T13:05:42;32.34;44.27
71096;DHT22;58753;49.440;11.126;2023-08-17T13:08:07;31.86;43.47
71096;DHT22;58753;49.440;11.126;2023-08-17T13:10:34;31.42;44.17
71096;DHT22;58753;49.440;11.126;2023-08-17T13:12:59;31.42;45.77
71096;DHT22;58753;49.440;11.126;2023-08-17T13:15:25;31.22;45.86
71096;DHT22;58753;49.440;11.126;2023-08-17T13:17:50;31.17;46.09
71096;DHT22;58753;49.440;11.126;2023-08-17T13:20:16;31.10;44.74
71096;DHT22;58753;49.440;11.126;2023-08-17T13:22:42;30.78;45.30
71096;DHT22;58753;49.440;11.126;2023-08-17T13:25:07;30.77;45.74
71096;DHT22;58753;49.440;11.126;2023-08-17T13:27:33;30.97;46.50
71096;DHT22;58753;49.440;11.126;2023-08-17T13:29:58;30.86;45.80
71096;DHT22;58753;49.440;11.126;2023-08-17T13:32:25;30.73;45.81
71096;DHT22;58753;49.440;11.126;2023-08-17T13:34:50;30.44;45.57
71096;DHT22;58753;49.440;11.126;2023-08-17T13:37:16;30.19;46.31
71096;DHT22;58753;49.440;11.126;2023-08-17T13:51:44;29.58;49.63
71096;DHT22;58753;49.440;11.126;2023-08-17T13:54:09;30.13;51.19
71096;DHT22;58753;49.440;11.126;2023-08-17T13:56:35;30.53;50.86
71096;DHT22;58753;49.440;11.126;2023-08-17T13:59:00;30.83;50.10
71096;DHT22;58753;49.440;11.126;2023-08-17T14:01:27;30.74;49.56
71096;DHT22;58753;49.440;11.126;2023-08-17T14:03:53;30.99;49.38
71096;DHT22;58753;49.440;11.126;2023-08-17T14:06:18;31.07;47.00
71096;DHT22;58753;49.440;11.126;2023-08-17T14:08:44;30.81;46.78
71096;DHT22;58753;49.440;11.126;2023-08-17T14:11:09;30.56;47.14
71096;DHT22;58753;49.440;11.126;2023-08-17T14:13:35;30.29;47.48
71096;DHT22;58753;49.440;11.126;2023-08-17T14:16:02;30.19;47.82
71096;DHT22;58753;49.440;11.126;2023-08-17T14:18:27;30.01;47.84
71096;DHT22;58753;49.440;11.126;2023-08-17T14:20:53;29.83;47.88
71096;DHT22;58753;49.440;11.126;2023-08-17T14:23:18;29.79;48.82
71096;DHT22;58753;49.440;11.126;2023-08-17T14:25:44;29.88;49.14
71096;DHT22;58753;49.440;11.126;2023-08-17T14:28:09;30.26;50.42
71096;DHT22;58753;49.440;11.126;2023-08-17T14:30:35;30.71;50.64
71096;DHT22;58753;49.440;11.126;2023-08-17T14:33:00;31.02;50.12
71096;DHT22;58753;49.440;11.126;2023-08-17T14:35:27;31.28;49.55
71096;DHT22;58753;49.440;11.126;2023-08-17T14:37:52;31.38;48.77
71096;DHT22;58753;49.440;11.126;2023-08-17T14:40:18;31.46;48.04
71096;DHT22;58753;49.440;11.126;2023-08-17T14:42:43;31.49;47.94
71096;DHT22;58753;49.440;11.126;2023-08-17T14:45:11;31.53;48.28
71096;DHT22;58753;49.440;11.126;2023-08-17T14:47:36;31.11;49.09
71096;DHT22;58753;49.440;11.126;2023-08-17T14:50:02;30.70;50.23
71096;DHT22;58753;49.440;11.126;2023-08-17T14:52:27;30.06;51.20
71096;DHT22;58753;49.440;11.126;2023-08-17T14:54:53;29.50;52.43
71096;DHT22;58753;49.440;11.126;2023-08-17T14:57:19;29.08;53.52
71096;DHT22;58753;49.440;11.126;2023-08-17T14:59:44;28.73;54.13
71096;DHT22;58753;49.440;11.126;2023-08-17T15:02:09;28.47;54.96
71096;DHT22;58753;49.440;11.126;2023-08-17T15:04:36;28.26;55.73
71096;DHT22;58753;49.440;11.126;2023-08-17T15:07:04;28.09;56.20
71096;DHT22;58753;49.440;11.126;2023-08-17T15:09:35;27.98;56.51
71096;DHT22;58753;49.440;11.126;2023-08-17T15:12:01;27.86;56.99
71096;DHT22;58753;49.440;11.126;2023-08-17T15:14:26;27.75;57.20
71096;DHT22;58753;49.440;11.126;2023-08-17T15:16:52;27.66;57.47
71096;DHT22;58753;49.440;11.126;2023-08-17T15:19:17;27.59;57.69
71096;DHT22;58753;49.440;11.126;2023-08-17T15:21:43;27.54;57.91
71096;DHT22;58753;49.440;11.126;2023-08-17T15:24:08;27.48;58.16
71096;DHT22;58753;49.440;11.126;2023-08-17T15:26:34;27.43;58.40
71096;DHT22;58753;49.440;11.126;2023-08-17T15:28:59;27.34;58.54
71096;DHT22;58753;49.440;11.126;2023-08-17T15:31:24;27.27;58.70
71096;DHT22;58753;49.440;11.126;2023-08-17T15:33:50;27.23;59.17
71096;DHT22;58753;49.440;11.126;2023-08-17T15:36:15;27.26;59.18
71096;DHT22;58753;49.440;11.126;2023-08-17T15:38:47;27.35;58.76
71096;DHT22;58753;49.440;11.126;2023-08-17T15:41:15;27.03;59.89
71096;DHT22;58753;49.440;11.126;2023-08-17T15:43:40;26.26;61.35
71096;DHT22;58753;49.440;11.126;2023-08-17T15:46:06;25.47;64.86
71096;DHT22;58753;49.440;11.126;2023-08-17T15:48:31;24.55;69.73
71096;DHT22;58753;49.440;11.126;2023-08-17T15:50:57;23.85;71.71
71096;DHT22;58753;49.440;11.126;2023-08-17T15:53:22;22.85;72.10
71096;DHT22;58753;49.440;11.126;2023-08-17T15:55:48;21.84;73.45
71096;DHT22;58753;49.440;11.126;2023-08-17T15:58:13;21.39;76.42